FYLZ/LUD METAR and TAF weather

Enter ICAO airport designator
Station Type Date Time Source
FYLZ METAR 2019/11/18 04:00 UTC NOAA

FYLZ 180400Z AUTO 18014KT //// // ////// 13/08 Q1009


Station Type Date Time Source
FYLZ Decoded METAR 2019/11/18 04:00 UTC NOAA

Luderitz / Diaz Point, Namibia (FYLZ) 26-41S 015-15E
Nov 17, 2019 - 11:00 PM EST / 2019.11.18 0400 UTC
Wind: from the S (180 degrees) at 16 MPH (14 KT):0
Temperature: 55 F (13 C)
Dew Point: 46 F (8 C)
Relative Humidity: 71%
Pressure (altimeter): 29.80 in. Hg (1009 hPa)
ob: FYLZ 180400Z AUTO 18014KT //// // ////// 13/08 Q1009
cycle: 4

Station Type Date Time Source
FYLZ TAF 2014/11/15 15:19 UTC NOAA

TAF FYLZ 151400Z 1515/1524 18015G28KT CAVOK
BECMG 1518/1520 16020KT

Example: see airport list